createdAt,value
2019-03-31T00:00:32.937Z,6.80
2019-03-31T00:02:59.431Z,6.70
2019-03-31T00:05:25.719Z,6.60
2019-03-31T00:07:52.077Z,6.60
2019-03-31T00:10:18.353Z,6.60
2019-03-31T00:12:44.592Z,6.60
2019-03-31T00:15:10.869Z,6.50
2019-03-31T00:17:37.160Z,6.40
2019-03-31T00:20:04.441Z,6.30
2019-03-31T00:22:30.918Z,6.30
2019-03-31T00:24:57.182Z,6.30
2019-03-31T00:27:23.467Z,6.20
2019-03-31T00:29:49.715Z,6.20
2019-03-31T00:32:15.963Z,6.10
2019-03-31T00:34:42.248Z,6.00
2019-03-31T00:37:08.518Z,6.00
2019-03-31T00:39:34.768Z,5.90
2019-03-31T00:42:01.036Z,5.80
2019-03-31T00:44:27.542Z,5.70
2019-03-31T00:46:53.790Z,5.60
2019-03-31T00:49:20.079Z,5.60
2019-03-31T00:51:46.364Z,5.60
2019-03-31T00:54:12.597Z,5.50
2019-03-31T00:56:38.859Z,5.40
2019-03-31T00:59:05.113Z,5.40
2019-03-31T01:01:36.629Z,5.30
2019-03-31T01:04:01.699Z,5.20
2019-03-31T01:06:28.492Z,5.20
2019-03-31T01:08:54.735Z,5.10
2019-03-31T01:11:22.911Z,5.00
2019-03-31T01:13:49.180Z,5.00
2019-03-31T01:16:15.454Z,5.10
2019-03-31T01:18:41.924Z,5.20
2019-03-31T01:21:08.276Z,5.40
2019-03-31T01:23:35.651Z,5.60
2019-03-31T01:26:01.899Z,5.80
2019-03-31T01:28:28.143Z,6.00
2019-03-31T01:30:54.396Z,6.30
2019-03-31T01:33:20.652Z,6.50
2019-03-31T01:35:46.928Z,6.60
2019-03-31T01:38:13.175Z,6.70
2019-03-31T01:40:39.449Z,6.80
2019-03-31T01:43:06.252Z,7.00
2019-03-31T01:45:32.532Z,6.90
2019-03-31T01:47:58.796Z,6.80
2019-03-31T01:50:26.440Z,6.70
2019-03-31T01:52:52.688Z,6.60
2019-03-31T01:55:18.943Z,6.70
2019-03-31T01:57:45.212Z,6.70
2019-03-31T02:00:13.436Z,6.60
2019-03-31T02:02:40.007Z,6.50
2019-03-31T02:05:06.376Z,6.50
2019-03-31T02:07:32.670Z,6.40
2019-03-31T02:10:00.355Z,6.30
2019-03-31T02:12:26.608Z,6.30
2019-03-31T02:14:52.882Z,6.30
2019-03-31T02:17:19.333Z,6.20
2019-03-31T02:19:45.608Z,6.20
2019-03-31T02:22:11.881Z,6.10
2019-03-31T02:24:38.165Z,6.00
2019-03-31T02:27:04.493Z,5.90
2019-03-31T02:29:30.732Z,5.90
2019-03-31T02:31:56.991Z,5.90
2019-03-31T02:34:24.132Z,5.80
2019-03-31T02:36:50.394Z,5.70
2019-03-31T02:39:16.644Z,5.60
2019-03-31T02:41:42.893Z,5.40
2019-03-31T02:44:09.179Z,5.30
2019-03-31T02:46:35.460Z,5.20
2019-03-31T02:49:01.714Z,5.10
2019-03-31T02:51:28.199Z,5.00
2019-03-31T02:53:54.565Z,4.90
2019-03-31T02:56:20.937Z,4.90
2019-03-31T02:58:55.016Z,4.70
2019-03-31T03:01:21.248Z,4.70
2019-03-31T03:03:47.707Z,4.60
2019-03-31T03:06:13.955Z,4.50
2019-03-31T03:08:40.233Z,4.40
2019-03-31T03:11:06.509Z,4.30
2019-03-31T03:13:33.188Z,4.30
2019-03-31T03:16:07.675Z,4.30
2019-03-31T03:18:33.958Z,4.20
2019-03-31T03:21:00.733Z,4.10
2019-03-31T03:23:27.014Z,4.00
2019-03-31T03:25:56.107Z,4.00
2019-03-31T03:28:21.438Z,4.00
2019-03-31T03:30:47.903Z,3.90
2019-03-31T03:33:17.257Z,3.90
2019-03-31T03:35:42.429Z,3.80
2019-03-31T03:38:08.956Z,3.80
2019-03-31T03:40:35.232Z,3.80
2019-03-31T03:43:01.516Z,3.70
2019-03-31T03:45:27.799Z,3.70
2019-03-31T03:47:54.067Z,3.70
2019-03-31T03:50:20.358Z,3.60
2019-03-31T03:52:46.679Z,3.60
2019-03-31T03:55:13.550Z,3.60
2019-03-31T03:57:41.690Z,3.50
2019-03-31T04:00:09.169Z,3.50
2019-03-31T04:02:35.429Z,3.50
2019-03-31T04:05:02.418Z,3.40
2019-03-31T04:07:28.650Z,3.30
2019-03-31T04:09:54.937Z,3.30
2019-03-31T04:12:21.186Z,3.20
2019-03-31T04:14:47.458Z,3.30
2019-03-31T04:17:13.701Z,3.20
2019-03-31T04:19:40.008Z,3.10
2019-03-31T04:22:06.285Z,3.10
2019-03-31T04:24:33.653Z,3.20
2019-03-31T04:27:01.125Z,3.30
2019-03-31T04:29:27.396Z,3.50
2019-03-31T04:31:53.665Z,3.80
2019-03-31T04:34:19.929Z,3.90
2019-03-31T04:36:46.215Z,4.00
2019-03-31T04:39:12.484Z,4.00
2019-03-31T04:41:38.756Z,4.00
2019-03-31T04:44:05.000Z,4.10
2019-03-31T04:46:31.292Z,4.20
2019-03-31T04:48:57.529Z,4.40
2019-03-31T04:51:23.818Z,4.40
2019-03-31T04:53:50.056Z,4.30
2019-03-31T04:56:16.307Z,4.30
2019-03-31T04:58:42.551Z,4.40
2019-03-31T05:01:08.853Z,4.40
2019-03-31T05:03:35.119Z,4.40
2019-03-31T05:06:01.376Z,4.50
2019-03-31T05:08:27.639Z,4.50
2019-03-31T05:10:53.872Z,4.60
2019-03-31T05:13:20.153Z,4.70
2019-03-31T05:15:46.574Z,4.80
2019-03-31T05:18:12.810Z,4.90
2019-03-31T05:20:39.056Z,4.90
2019-03-31T05:23:05.333Z,5.00
2019-03-31T05:25:31.580Z,5.20
2019-03-31T05:27:57.861Z,5.40
2019-03-31T05:30:24.136Z,5.60
2019-03-31T05:32:50.391Z,5.70
2019-03-31T05:35:16.634Z,5.70
2019-03-31T05:37:50.854Z,5.80
2019-03-31T05:40:11.354Z,6.00
2019-03-31T05:42:37.886Z,6.10
2019-03-31T05:45:04.929Z,6.20
2019-03-31T05:47:31.221Z,6.40
2019-03-31T05:49:57.454Z,6.50
2019-03-31T05:52:23.733Z,6.70
2019-03-31T05:54:51.065Z,6.80
2019-03-31T05:57:17.339Z,6.90
2019-03-31T05:59:43.620Z,7.00
2019-03-31T06:02:10.039Z,7.00
2019-03-31T06:04:36.382Z,6.90
2019-03-31T06:07:02.613Z,6.80
2019-03-31T06:09:28.892Z,6.70
2019-03-31T06:11:55.278Z,6.60
2019-03-31T06:14:21.550Z,6.60
2019-03-31T06:16:48.295Z,6.60
2019-03-31T06:19:14.573Z,6.60
2019-03-31T06:21:40.876Z,6.60
2019-03-31T06:24:07.125Z,6.70
2019-03-31T06:26:33.400Z,6.80
2019-03-31T06:28:59.682Z,6.80
2019-03-31T06:31:25.961Z,6.90
2019-03-31T06:33:52.196Z,6.90
2019-03-31T06:36:18.494Z,7.00
2019-03-31T06:38:44.761Z,7.10
2019-03-31T06:41:11.036Z,7.20
2019-03-31T06:43:37.295Z,7.20
2019-03-31T06:46:03.572Z,7.40
2019-03-31T06:48:29.841Z,7.50
2019-03-31T06:50:56.077Z,7.80
2019-03-31T06:53:22.337Z,8.10
2019-03-31T06:55:48.720Z,8.50
2019-03-31T06:58:15.882Z,8.60
2019-03-31T07:00:42.174Z,8.50
2019-03-31T07:03:08.439Z,8.30
2019-03-31T07:05:34.744Z,8.40
2019-03-31T07:08:01.892Z,8.40
2019-03-31T07:10:28.183Z,8.50
2019-03-31T07:12:54.515Z,8.70
2019-03-31T07:15:20.772Z,8.90
2019-03-31T07:17:47.025Z,9.00
2019-03-31T07:20:13.534Z,9.10
2019-03-31T07:22:39.815Z,9.40
2019-03-31T07:25:08.148Z,9.60
2019-03-31T07:27:35.331Z,9.80
2019-03-31T07:30:07.176Z,9.70
2019-03-31T07:32:33.125Z,9.40
2019-03-31T07:34:59.765Z,9.20
2019-03-31T07:37:26.076Z,9.10
2019-03-31T07:39:52.377Z,8.90
2019-03-31T07:42:18.613Z,8.90
2019-03-31T07:44:44.867Z,8.90
2019-03-31T07:47:11.138Z,8.70
2019-03-31T07:49:37.444Z,8.80
2019-03-31T07:52:03.682Z,8.80
2019-03-31T07:54:29.971Z,9.10
2019-03-31T07:56:56.481Z,9.30
2019-03-31T07:59:23.959Z,9.50
2019-03-31T08:01:50.296Z,9.60
2019-03-31T08:04:16.770Z,9.70
2019-03-31T08:06:43.037Z,9.70
2019-03-31T08:09:09.315Z,9.60
2019-03-31T08:11:37.199Z,9.70
2019-03-31T08:14:03.465Z,9.70
2019-03-31T08:16:29.739Z,9.70
2019-03-31T08:18:56.025Z,9.80
2019-03-31T08:21:22.261Z,10.10
2019-03-31T08:23:48.541Z,10.40
2019-03-31T08:26:14.790Z,10.40
2019-03-31T08:28:41.363Z,10.60
2019-03-31T08:31:07.644Z,10.50
2019-03-31T08:33:33.887Z,10.30
2019-03-31T08:36:00.180Z,10.20
2019-03-31T08:38:26.447Z,9.90
2019-03-31T08:40:52.712Z,9.60
2019-03-31T08:43:18.952Z,9.70
2019-03-31T08:45:45.197Z,10.00
2019-03-31T08:48:11.487Z,10.20
2019-03-31T08:50:37.769Z,10.50
2019-03-31T08:53:04.172Z,10.80
2019-03-31T08:55:30.438Z,10.50
2019-03-31T08:57:57.865Z,10.10
2019-03-31T09:00:26.153Z,9.70
2019-03-31T09:02:52.433Z,9.50
2019-03-31T09:05:18.680Z,9.30
2019-03-31T09:07:44.960Z,9.10
2019-03-31T09:10:13.116Z,9.00
2019-03-31T09:12:39.392Z,9.00
2019-03-31T09:15:07.433Z,9.00
2019-03-31T09:17:33.711Z,8.90
2019-03-31T09:19:59.953Z,8.80
2019-03-31T09:22:26.199Z,8.70
2019-03-31T09:24:52.479Z,8.80
2019-03-31T09:27:18.723Z,8.90
2019-03-31T09:29:45.024Z,9.10
2019-03-31T09:32:11.294Z,9.00
2019-03-31T09:34:37.664Z,9.00
2019-03-31T09:37:03.923Z,8.80
2019-03-31T09:39:30.200Z,8.80
2019-03-31T09:41:56.480Z,8.60
2019-03-31T09:44:22.768Z,8.60
2019-03-31T09:46:49.022Z,8.60
2019-03-31T09:49:15.299Z,8.70
2019-03-31T09:51:41.580Z,8.90
2019-03-31T09:54:07.839Z,8.90
2019-03-31T09:56:34.232Z,8.90
2019-03-31T09:59:00.465Z,8.90
2019-03-31T10:01:26.823Z,8.90
2019-03-31T10:03:53.335Z,8.90
2019-03-31T10:06:30.037Z,9.00
2019-03-31T10:08:47.738Z,9.50
2019-03-31T10:11:14.003Z,10.40
2019-03-31T10:13:40.480Z,11.10
2019-03-31T10:16:06.730Z,11.20
2019-03-31T10:18:33.016Z,10.90
2019-03-31T10:20:59.349Z,10.80
2019-03-31T10:23:25.655Z,10.70
2019-03-31T10:25:51.893Z,10.60
2019-03-31T10:28:18.177Z,10.80
2019-03-31T10:30:44.424Z,11.10
2019-03-31T10:33:10.674Z,11.10
2019-03-31T10:35:36.957Z,11.20
2019-03-31T10:38:03.224Z,11.20
2019-03-31T10:40:29.578Z,10.80
2019-03-31T10:42:56.082Z,10.70
2019-03-31T10:45:22.331Z,10.80
2019-03-31T10:47:48.608Z,10.90
2019-03-31T10:50:15.011Z,10.80
2019-03-31T10:52:41.251Z,10.80
2019-03-31T10:55:07.526Z,10.80
2019-03-31T10:57:33.783Z,11.00
2019-03-31T11:00:00.174Z,11.00
2019-03-31T11:02:26.513Z,11.20
2019-03-31T11:04:52.763Z,11.40
2019-03-31T11:07:19.082Z,11.40
2019-03-31T11:09:45.351Z,11.50
2019-03-31T11:12:11.682Z,11.80
2019-03-31T11:14:37.940Z,12.00
2019-03-31T11:17:04.186Z,12.40
2019-03-31T11:19:30.474Z,12.70
2019-03-31T11:22:04.604Z,12.50
2019-03-31T11:24:30.855Z,12.40
2019-03-31T11:26:57.147Z,12.30
2019-03-31T11:29:23.413Z,12.20
2019-03-31T11:31:49.922Z,12.00
2019-03-31T11:34:16.184Z,11.80
2019-03-31T11:36:42.433Z,11.60
2019-03-31T11:39:09.832Z,11.40
2019-03-31T11:41:36.134Z,11.10
2019-03-31T11:44:02.393Z,11.10
2019-03-31T11:46:28.680Z,11.10
2019-03-31T11:48:54.954Z,11.10
2019-03-31T11:51:21.333Z,11.20
2019-03-31T11:53:48.709Z,11.50
2019-03-31T11:56:14.955Z,12.10
2019-03-31T11:58:41.287Z,12.40
2019-03-31T12:01:08.280Z,12.40
2019-03-31T12:03:34.544Z,12.60
2019-03-31T12:06:00.901Z,12.60
2019-03-31T12:08:27.180Z,12.60
2019-03-31T12:10:53.455Z,12.50
2019-03-31T12:13:19.731Z,12.40
2019-03-31T12:15:46.020Z,12.20
2019-03-31T12:18:12.281Z,12.10
2019-03-31T12:20:38.522Z,11.90
2019-03-31T12:23:04.806Z,11.80
2019-03-31T12:25:31.083Z,12.10
2019-03-31T12:27:57.385Z,12.60
2019-03-31T12:30:26.383Z,12.90
2019-03-31T12:32:52.669Z,13.00
2019-03-31T12:35:18.914Z,12.70
2019-03-31T12:37:45.188Z,12.30
2019-03-31T12:40:30.796Z,12.20
2019-03-31T12:42:57.131Z,12.40
2019-03-31T12:45:23.373Z,12.40
2019-03-31T12:47:49.888Z,12.40
2019-03-31T12:50:16.132Z,12.20
2019-03-31T12:52:46.991Z,12.30
2019-03-31T12:55:10.668Z,12.30
2019-03-31T12:57:36.990Z,12.20
2019-03-31T13:00:04.761Z,12.20
2019-03-31T13:02:31.068Z,12.00
2019-03-31T13:04:57.611Z,12.20
2019-03-31T13:07:23.879Z,12.40
2019-03-31T13:09:50.163Z,12.70
2019-03-31T13:12:16.408Z,12.60
2019-03-31T13:14:42.649Z,12.60
2019-03-31T13:17:08.909Z,12.80
2019-03-31T13:19:35.196Z,12.70
2019-03-31T13:22:01.490Z,12.70
2019-03-31T13:24:27.759Z,12.80
2019-03-31T13:26:54.049Z,12.90
2019-03-31T13:29:20.316Z,13.20
2019-03-31T13:31:46.594Z,13.30
2019-03-31T13:34:12.875Z,13.00
2019-03-31T13:36:39.147Z,12.90
2019-03-31T13:39:05.505Z,12.90
2019-03-31T13:41:31.740Z,12.90
2019-03-31T13:43:58.023Z,12.70
2019-03-31T13:46:24.264Z,12.90
2019-03-31T13:48:50.527Z,12.90
2019-03-31T13:51:16.769Z,12.80
2019-03-31T13:53:43.895Z,12.80
2019-03-31T13:56:10.432Z,12.70
2019-03-31T13:58:38.566Z,12.70
2019-03-31T14:01:05.185Z,12.90
2019-03-31T14:03:31.939Z,13.10
2019-03-31T14:05:58.209Z,12.90
2019-03-31T14:08:26.085Z,13.20
2019-03-31T14:10:52.535Z,13.90
2019-03-31T14:13:19.039Z,15.20
2019-03-31T14:15:45.337Z,16.10
2019-03-31T14:18:11.578Z,16.20
2019-03-31T14:20:37.854Z,15.50
2019-03-31T14:23:04.101Z,15.50
2019-03-31T14:25:30.382Z,15.20
2019-03-31T14:27:56.771Z,15.00
2019-03-31T14:30:23.035Z,14.80
2019-03-31T14:32:50.415Z,15.00
2019-03-31T14:35:16.958Z,15.00
2019-03-31T14:37:43.206Z,15.00
2019-03-31T14:40:09.481Z,14.90
2019-03-31T14:42:35.799Z,15.00
2019-03-31T14:45:03.375Z,15.20
2019-03-31T14:47:29.667Z,15.60
2019-03-31T14:49:55.902Z,15.50
2019-03-31T14:52:27.599Z,15.30
2019-03-31T14:54:50.655Z,14.90
2019-03-31T14:57:22.998Z,15.30
2019-03-31T14:59:49.273Z,15.10
2019-03-31T15:02:15.576Z,15.10
2019-03-31T15:04:41.858Z,14.60
2019-03-31T15:07:08.136Z,14.20
2019-03-31T15:09:34.413Z,14.70
2019-03-31T15:12:00.682Z,14.80
2019-03-31T15:14:26.960Z,14.90
2019-03-31T15:16:53.217Z,14.90
2019-03-31T15:19:19.471Z,14.80
2019-03-31T15:21:45.750Z,14.50
2019-03-31T15:24:13.087Z,14.40
2019-03-31T15:26:40.170Z,14.20
2019-03-31T15:29:06.458Z,14.40
2019-03-31T15:31:32.731Z,14.70
2019-03-31T15:33:59.003Z,14.70
2019-03-31T15:36:25.259Z,14.20
2019-03-31T15:38:51.498Z,14.00
2019-03-31T15:41:21.350Z,14.30
2019-03-31T15:43:45.905Z,14.70
2019-03-31T15:46:12.160Z,15.40
2019-03-31T15:48:38.481Z,16.30
2019-03-31T15:51:04.765Z,16.60
2019-03-31T15:53:31.003Z,16.40
2019-03-31T15:55:57.249Z,16.30
2019-03-31T15:58:23.617Z,16.40
2019-03-31T16:00:49.961Z,15.40
2019-03-31T16:03:16.203Z,14.30
2019-03-31T16:05:42.553Z,13.40
2019-03-31T16:08:11.940Z,12.70
2019-03-31T16:10:38.327Z,12.20
2019-03-31T16:13:04.569Z,12.10
2019-03-31T16:15:30.817Z,12.50
2019-03-31T16:17:58.189Z,13.20
2019-03-31T16:20:24.455Z,14.00
2019-03-31T16:22:50.740Z,15.10
2019-03-31T16:25:41.913Z,15.40
2019-03-31T16:28:08.153Z,15.70
2019-03-31T16:30:35.429Z,16.10
2019-03-31T16:33:01.753Z,15.70
2019-03-31T16:35:28.052Z,15.70
2019-03-31T16:37:54.324Z,15.60
2019-03-31T16:40:20.612Z,15.10
2019-03-31T16:42:46.849Z,14.50
2019-03-31T16:45:13.100Z,15.00
2019-03-31T16:47:39.466Z,15.50
2019-03-31T16:50:05.715Z,15.70
2019-03-31T16:52:32.021Z,15.20
2019-03-31T16:54:58.397Z,14.70
2019-03-31T16:57:24.941Z,14.70
2019-03-31T16:59:51.208Z,14.40
2019-03-31T17:02:18.012Z,13.60
2019-03-31T17:04:44.291Z,13.10
2019-03-31T17:07:10.546Z,12.40
2019-03-31T17:09:50.673Z,12.10
2019-03-31T17:12:06.138Z,11.40
2019-03-31T17:14:32.402Z,10.70
2019-03-31T17:16:58.795Z,10.20
2019-03-31T17:19:30.962Z,9.70
2019-03-31T17:21:59.745Z,9.30
2019-03-31T17:24:25.665Z,9.10
2019-03-31T17:26:51.938Z,8.80
2019-03-31T17:29:18.298Z,8.60
2019-03-31T17:31:44.581Z,8.30
2019-03-31T17:34:10.837Z,8.20
2019-03-31T17:36:37.088Z,8.00
2019-03-31T17:39:06.142Z,7.90
2019-03-31T17:41:32.419Z,7.70
2019-03-31T17:43:58.689Z,7.50
2019-03-31T17:46:24.927Z,7.30
2019-03-31T17:48:51.200Z,7.10
2019-03-31T17:51:17.472Z,7.00
2019-03-31T17:53:43.907Z,6.90
2019-03-31T17:56:10.255Z,6.70
2019-03-31T17:58:36.895Z,6.60
2019-03-31T18:01:03.230Z,6.50
2019-03-31T18:03:29.509Z,6.50
2019-03-31T18:05:55.809Z,6.30
2019-03-31T18:08:22.092Z,6.20
2019-03-31T18:10:48.408Z,6.20
2019-03-31T18:13:14.696Z,6.10
2019-03-31T18:15:41.083Z,6.10
2019-03-31T18:18:07.380Z,6.00
2019-03-31T18:20:33.670Z,6.10
2019-03-31T18:22:59.937Z,6.00
2019-03-31T18:25:26.266Z,5.80
2019-03-31T18:27:52.504Z,5.60
2019-03-31T18:30:18.782Z,5.50
2019-03-31T18:32:45.098Z,5.40
2019-03-31T18:35:11.938Z,5.40
2019-03-31T18:37:38.315Z,5.40
2019-03-31T18:40:07.812Z,5.40
2019-03-31T18:42:34.056Z,5.40
2019-03-31T18:45:07.911Z,5.20
2019-03-31T18:47:35.304Z,5.20
2019-03-31T18:50:04.624Z,5.10
2019-03-31T18:52:31.892Z,5.00
2019-03-31T18:55:04.568Z,4.90
2019-03-31T18:57:49.088Z,5.00
2019-03-31T19:00:33.859Z,5.00
2019-03-31T19:03:13.944Z,4.90
2019-03-31T19:05:42.104Z,4.90
2019-03-31T19:08:25.605Z,4.80
2019-03-31T19:10:53.778Z,4.50
2019-03-31T19:13:22.034Z,4.40
2019-03-31T19:15:50.318Z,4.30
2019-03-31T19:18:36.536Z,4.30
2019-03-31T19:21:21.910Z,4.40
2019-03-31T19:23:48.196Z,4.40
2019-03-31T19:26:22.029Z,4.30
2019-03-31T19:28:57.978Z,4.40
2019-03-31T19:31:29.142Z,4.20
2019-03-31T19:33:57.350Z,4.00
2019-03-31T19:36:31.574Z,3.90
2019-03-31T19:39:08.713Z,3.80
2019-03-31T19:41:53.201Z,3.70
2019-03-31T19:44:27.279Z,3.60
2019-03-31T19:46:59.137Z,3.60
2019-03-31T19:49:34.262Z,3.60
2019-03-31T19:52:06.608Z,3.70
2019-03-31T19:54:38.153Z,3.70
2019-03-31T19:57:12.281Z,3.60
2019-03-31T19:59:40.437Z,3.40
2019-03-31T20:02:14.803Z,3.40
2019-03-31T20:04:47.026Z,3.20
2019-03-31T20:07:32.134Z,3.10
2019-03-31T20:10:06.022Z,2.90
2019-03-31T20:12:51.080Z,2.90
2019-03-31T20:15:37.353Z,3.00
2019-03-31T20:18:14.439Z,3.00
2019-03-31T20:21:00.731Z,2.90
2019-03-31T20:23:35.058Z,2.80
2019-03-31T20:26:07.249Z,2.70
2019-03-31T20:28:35.434Z,2.60
2019-03-31T20:31:06.379Z,2.50
2019-03-31T20:33:35.539Z,2.40
2019-03-31T20:36:21.587Z,2.30
2019-03-31T20:39:07.997Z,2.20
2019-03-31T20:41:36.298Z,2.00
2019-03-31T20:44:02.706Z,1.90
2019-03-31T20:46:28.936Z,1.90
2019-03-31T20:48:55.214Z,2.00
2019-03-31T20:51:21.495Z,2.00
2019-03-31T20:53:48.031Z,1.90
2019-03-31T20:56:14.301Z,1.80
2019-03-31T20:58:40.548Z,1.70
2019-03-31T21:01:09.961Z,1.70
2019-03-31T21:03:38.103Z,1.60
2019-03-31T21:06:04.661Z,1.60
2019-03-31T21:08:30.940Z,1.60
2019-03-31T21:11:02.143Z,1.60
2019-03-31T21:13:28.405Z,1.50
2019-03-31T21:15:54.718Z,1.40
2019-03-31T21:18:21.286Z,1.30
2019-03-31T21:20:47.574Z,1.30
2019-03-31T21:23:13.889Z,1.30
2019-03-31T21:25:40.166Z,1.20
2019-03-31T21:28:06.447Z,1.20
2019-03-31T21:30:32.708Z,1.20
2019-03-31T21:33:00.130Z,1.10
2019-03-31T21:35:26.420Z,1.00
2019-03-31T21:37:53.158Z,0.90
2019-03-31T21:40:19.431Z,0.80
2019-03-31T21:42:45.808Z,0.70
2019-03-31T21:45:12.577Z,0.60
2019-03-31T21:47:39.281Z,0.50
2019-03-31T21:50:06.048Z,0.50
2019-03-31T21:52:33.131Z,0.40
2019-03-31T21:54:59.468Z,0.20
2019-03-31T21:57:25.842Z,0.10
2019-03-31T21:59:52.239Z,-0.10
2019-03-31T22:02:20.069Z,-0.20
2019-03-31T22:04:46.581Z,-0.30
2019-03-31T22:07:12.819Z,-0.40
2019-03-31T22:09:39.096Z,-0.50
2019-03-31T22:12:06.099Z,-0.50
2019-03-31T22:14:32.339Z,-0.60
2019-03-31T22:16:59.719Z,-0.60
2019-03-31T22:19:26.002Z,-0.70
2019-03-31T22:21:52.282Z,-0.80
2019-03-31T22:24:18.533Z,-0.80
2019-03-31T22:26:44.926Z,-0.80
2019-03-31T22:29:11.170Z,-0.90
2019-03-31T22:31:37.422Z,-0.90
2019-03-31T22:34:03.666Z,-1.00
2019-03-31T22:36:30.456Z,-0.90
2019-03-31T22:38:56.732Z,-1.00
2019-03-31T22:41:22.985Z,-1.10
2019-03-31T22:43:49.264Z,-1.20
2019-03-31T22:46:16.918Z,-1.20
2019-03-31T22:48:43.193Z,-1.20
2019-03-31T22:51:09.470Z,-1.20
2019-03-31T22:53:35.853Z,-1.30
2019-03-31T22:56:02.231Z,-1.40
2019-03-31T22:58:28.484Z,-1.40
2019-03-31T23:00:54.769Z,-1.50
2019-03-31T23:03:21.021Z,-1.50
2019-03-31T23:05:47.305Z,-1.50
2019-03-31T23:08:14.647Z,-1.60
2019-03-31T23:10:40.895Z,-1.60
2019-03-31T23:13:07.152Z,-1.70
2019-03-31T23:15:33.429Z,-1.70
2019-03-31T23:17:59.671Z,-1.80
2019-03-31T23:20:25.916Z,-1.90
2019-03-31T23:22:52.199Z,-1.90
2019-03-31T23:25:18.445Z,-2.00
2019-03-31T23:27:44.685Z,-2.00
2019-03-31T23:30:11.340Z,-2.10
2019-03-31T23:32:37.590Z,-2.10
2019-03-31T23:35:05.345Z,-2.10
2019-03-31T23:37:33.633Z,-2.20
2019-03-31T23:40:00.405Z,-2.20
2019-03-31T23:42:26.691Z,-2.20
2019-03-31T23:44:53.037Z,-2.20
2019-03-31T23:47:19.325Z,-2.20
2019-03-31T23:49:45.598Z,-2.20
2019-03-31T23:52:11.864Z,-2.20
2019-03-31T23:54:38.140Z,-2.30
2019-03-31T23:57:05.768Z,-2.30
2019-03-31T23:59:32.260Z,-2.40
